createdAt,value
2022-08-17T00:00:42.830Z,25.61
2022-08-17T00:03:10.789Z,25.38
2022-08-17T00:05:42.976Z,25.28
2022-08-17T00:08:13.032Z,25.41
2022-08-17T00:10:41.703Z,24.81
2022-08-17T00:13:12.337Z,25.30
2022-08-17T00:15:40.652Z,24.94
2022-08-17T00:18:57.427Z,25.12
2022-08-17T00:20:59.453Z,25.23
2022-08-17T00:23:29.364Z,24.62
2022-08-17T00:25:57.957Z,24.78
2022-08-17T00:28:26.380Z,24.60
2022-08-17T00:30:59.412Z,24.62
2022-08-17T00:33:30.345Z,24.64
2022-08-17T00:36:00.140Z,24.48
2022-08-17T00:38:30.418Z,24.48
2022-08-17T00:41:00.738Z,24.43
2022-08-17T00:43:34.517Z,24.64
2022-08-17T00:46:04.549Z,24.87
2022-08-17T00:48:34.059Z,24.99
2022-08-17T00:51:07.268Z,24.64
2022-08-17T00:53:40.630Z,24.58
2022-08-17T00:56:12.611Z,24.17
2022-08-17T00:58:41.381Z,24.14
2022-08-17T01:01:10.618Z,24.27
2022-08-17T01:03:39.618Z,24.50
2022-08-17T01:06:10.062Z,24.62
2022-08-17T01:08:40.562Z,24.72
2022-08-17T01:11:12.255Z,24.84
2022-08-17T01:13:43.388Z,24.14
2022-08-17T01:16:17.144Z,24.33
2022-08-17T01:18:48.752Z,24.75
2022-08-17T01:21:24.254Z,24.85
2022-08-17T01:23:53.870Z,24.62
2022-08-17T01:26:22.763Z,24.79
2022-08-17T01:28:55.142Z,24.48
2022-08-17T01:31:26.313Z,24.37
2022-08-17T01:33:54.589Z,24.39
2022-08-17T01:36:22.968Z,24.59
2022-08-17T01:38:51.256Z,24.55
2022-08-17T01:41:23.027Z,24.37
2022-08-17T01:43:54.081Z,24.76
2022-08-17T01:46:27.092Z,24.82
2022-08-17T01:48:56.395Z,24.41
2022-08-17T01:51:25.023Z,23.82
2022-08-17T01:53:55.654Z,23.74
2022-08-17T01:56:26.026Z,24.10
2022-08-17T01:58:54.728Z,23.94
2022-08-17T02:01:26.616Z,24.27
2022-08-17T02:04:00.504Z,23.93
2022-08-17T02:06:52.558Z,24.28
2022-08-17T02:09:23.206Z,24.03
2022-08-17T02:11:54.238Z,23.94
2022-08-17T02:14:22.764Z,24.07
2022-08-17T02:16:51.153Z,23.98
2022-08-17T02:19:19.389Z,24.38
2022-08-17T02:21:49.892Z,24.19
2022-08-17T02:24:58.210Z,24.26
2022-08-17T02:27:11.876Z,23.94
2022-08-17T02:29:40.185Z,24.41
2022-08-17T02:32:20.629Z,23.87
2022-08-17T02:34:56.990Z,23.89
2022-08-17T02:37:25.831Z,23.92
2022-08-17T02:39:54.162Z,23.83
2022-08-17T02:42:28.652Z,23.69
2022-08-17T02:44:56.965Z,23.81
2022-08-17T02:47:25.743Z,23.54
2022-08-17T02:49:56.070Z,23.53
2022-08-17T02:52:42.565Z,23.80
2022-08-17T02:55:14.774Z,23.66
2022-08-17T02:57:44.705Z,23.67
2022-08-17T03:00:16.516Z,23.61
2022-08-17T03:02:45.792Z,24.07
2022-08-17T03:05:16.335Z,24.12
2022-08-17T03:07:44.627Z,24.15
2022-08-17T03:10:13.311Z,24.05
2022-08-17T03:12:44.594Z,23.68
2022-08-17T03:15:16.617Z,23.39
2022-08-17T03:17:45.351Z,23.70
2022-08-17T03:20:14.517Z,23.44
2022-08-17T03:22:48.109Z,23.42
2022-08-17T03:25:24.700Z,23.47
2022-08-17T03:27:56.783Z,23.86
2022-08-17T03:30:26.028Z,23.26
2022-08-17T03:32:55.945Z,23.05
2022-08-17T03:35:26.488Z,23.29
2022-08-17T03:38:00.173Z,23.15
2022-08-17T03:40:55.677Z,23.33
2022-08-17T03:43:19.561Z,23.31
2022-08-17T03:46:05.835Z,23.66
2022-08-17T03:48:56.690Z,23.21
2022-08-17T03:51:43.309Z,23.28
2022-08-17T03:54:29.434Z,22.99
2022-08-17T03:57:02.631Z,23.01
2022-08-17T03:59:32.358Z,23.24
2022-08-17T04:02:05.058Z,23.33
2022-08-17T04:04:33.265Z,23.35
2022-08-17T04:07:01.482Z,23.60
2022-08-17T04:09:29.753Z,23.66
2022-08-17T04:12:00.273Z,23.55
2022-08-17T04:14:39.329Z,23.37
2022-08-17T04:17:23.366Z,23.37
2022-08-17T04:19:51.607Z,23.33
2022-08-17T04:22:30.803Z,23.55
2022-08-17T04:25:03.906Z,23.52
2022-08-17T04:27:32.267Z,23.83
2022-08-17T04:30:01.993Z,23.22
2022-08-17T04:33:03.939Z,23.27
2022-08-17T04:35:20.465Z,23.28
2022-08-17T04:37:48.755Z,23.00
2022-08-17T04:40:35.510Z,23.54
2022-08-17T04:43:05.506Z,23.54
2022-08-17T04:45:35.792Z,23.71
2022-08-17T04:48:04.617Z,23.20
2022-08-17T04:50:32.908Z,22.95
2022-08-17T04:53:01.470Z,23.54
2022-08-17T04:55:30.040Z,23.19
2022-08-17T04:57:58.937Z,23.22
2022-08-17T05:00:27.401Z,23.91
2022-08-17T05:02:57.893Z,23.12
2022-08-17T05:05:28.157Z,23.30
2022-08-17T05:07:59.451Z,23.35
2022-08-17T05:10:36.151Z,23.93
2022-08-17T05:13:10.727Z,24.07
2022-08-17T05:15:44.856Z,24.19
2022-08-17T05:18:16.750Z,24.39
2022-08-17T05:20:48.625Z,24.04
2022-08-17T05:23:27.217Z,24.43
2022-08-17T05:26:20.395Z,24.53
2022-08-17T05:28:59.581Z,24.49
2022-08-17T05:31:34.409Z,24.69
2022-08-17T05:34:20.926Z,24.89
2022-08-17T05:36:51.458Z,24.68
2022-08-17T05:39:26.893Z,25.22
2022-08-17T05:41:56.689Z,25.20
2022-08-17T05:44:27.833Z,25.32
2022-08-17T05:46:58.390Z,25.19
2022-08-17T05:49:31.275Z,25.66
2022-08-17T05:52:14.771Z,25.58
2022-08-17T05:55:06.867Z,25.95
2022-08-17T05:57:53.532Z,26.15
2022-08-17T06:00:30.633Z,26.02
2022-08-17T06:03:26.288Z,26.03
2022-08-17T06:06:33.319Z,26.18
2022-08-17T06:09:12.723Z,26.44
2022-08-17T06:11:47.430Z,26.50
2022-08-17T06:14:43.180Z,26.68
2022-08-17T06:17:14.048Z,26.98
2022-08-17T06:19:45.451Z,27.11
2022-08-17T06:22:17.121Z,26.87
2022-08-17T06:24:50.121Z,27.11
2022-08-17T06:27:25.083Z,27.13
2022-08-17T06:29:57.101Z,26.89
2022-08-17T06:32:25.936Z,27.73
2022-08-17T06:34:54.283Z,27.92
2022-08-17T06:37:57.615Z,27.67
2022-08-17T06:40:40.028Z,27.85
2022-08-17T06:43:19.491Z,28.09
2022-08-17T06:45:51.958Z,28.02
2022-08-17T06:48:26.831Z,28.21
2022-08-17T06:51:00.215Z,28.20
2022-08-17T06:53:33.595Z,28.62
2022-08-17T06:56:07.280Z,28.64
2022-08-17T06:58:38.916Z,28.43
2022-08-17T07:01:12.429Z,28.59
2022-08-17T07:03:45.136Z,28.98
2022-08-17T07:06:19.011Z,28.95
2022-08-17T07:09:05.772Z,29.26
2022-08-17T07:11:39.171Z,28.78
2022-08-17T07:14:17.308Z,29.05
2022-08-17T07:16:48.162Z,29.56
2022-08-17T07:19:19.710Z,29.66
2022-08-17T07:21:51.861Z,30.03
2022-08-17T07:24:30.741Z,29.69
2022-08-17T07:27:15.107Z,29.79
2022-08-17T07:29:49.621Z,29.52
2022-08-17T07:32:23.827Z,29.84
2022-08-17T07:35:17.026Z,30.24
2022-08-17T07:37:53.286Z,30.38
2022-08-17T07:40:29.755Z,30.33
2022-08-17T07:43:23.035Z,30.01
2022-08-17T07:46:13.288Z,30.69
2022-08-17T07:48:43.890Z,30.45
2022-08-17T07:51:26.998Z,30.68
2022-08-17T07:54:13.117Z,30.95
2022-08-17T07:56:47.557Z,30.87
2022-08-17T07:59:23.185Z,30.91
2022-08-17T08:02:31.690Z,30.79
2022-08-17T08:05:06.767Z,30.75
2022-08-17T08:07:40.247Z,30.99
2022-08-17T08:10:11.703Z,30.86
2022-08-17T08:12:44.798Z,31.22
2022-08-17T08:15:19.072Z,30.97
2022-08-17T08:17:52.337Z,31.25
2022-08-17T08:20:51.555Z,31.72
2022-08-17T08:23:33.457Z,32.33
2022-08-17T08:26:18.477Z,31.57
2022-08-17T08:28:52.951Z,31.47
2022-08-17T08:31:27.281Z,31.70
2022-08-17T08:34:06.614Z,31.72
2022-08-17T08:37:14.226Z,32.05
2022-08-17T08:39:35.872Z,32.04
2022-08-17T08:42:08.788Z,32.51
2022-08-17T08:45:00.086Z,32.34
2022-08-17T08:47:44.532Z,32.20
2022-08-17T08:50:37.280Z,32.31
2022-08-17T08:53:21.429Z,32.50
2022-08-17T08:55:54.713Z,32.61
2022-08-17T08:58:31.604Z,32.70
2022-08-17T09:01:17.049Z,32.54
2022-08-17T09:04:19.944Z,32.77
2022-08-17T09:07:00.162Z,33.36
2022-08-17T09:09:40.033Z,33.93
2022-08-17T09:12:15.428Z,33.48
2022-08-17T09:14:46.892Z,34.09
2022-08-17T09:17:21.081Z,34.31
2022-08-17T09:19:53.852Z,34.26
2022-08-17T09:22:31.662Z,34.63
2022-08-17T09:25:07.022Z,34.04
2022-08-17T09:27:47.686Z,34.71
2022-08-17T09:30:16.298Z,34.97
2022-08-17T09:32:49.992Z,35.03
2022-08-17T09:35:22.819Z,34.92
2022-08-17T09:37:57.789Z,34.94
2022-08-17T09:40:29.579Z,35.52
2022-08-17T09:43:02.441Z,35.86
2022-08-17T09:45:33.666Z,35.76
2022-08-17T09:48:08.670Z,36.01
2022-08-17T09:51:03.159Z,36.11
2022-08-17T09:53:31.891Z,35.85
2022-08-17T09:56:25.137Z,36.14
2022-08-17T09:59:27.495Z,35.95
2022-08-17T10:02:27.640Z,36.25
2022-08-17T10:05:02.435Z,36.70
2022-08-17T10:07:35.244Z,36.44
2022-08-17T10:10:14.238Z,36.10
2022-08-17T10:12:47.402Z,36.29
2022-08-17T10:15:22.549Z,37.20
2022-08-17T10:18:07.554Z,37.57
2022-08-17T10:20:42.979Z,36.93
2022-08-17T10:23:33.216Z,36.82
2022-08-17T10:26:15.556Z,37.91
2022-08-17T10:28:49.343Z,37.49
2022-08-17T10:31:35.902Z,37.53
2022-08-17T10:34:30.233Z,37.80
2022-08-17T10:37:25.229Z,37.14
2022-08-17T10:39:58.534Z,37.60
2022-08-17T10:42:32.974Z,37.93
2022-08-17T10:45:05.530Z,38.64
2022-08-17T10:48:05.125Z,38.39
2022-08-17T10:50:49.544Z,37.78
2022-08-17T10:53:55.999Z,37.95
2022-08-17T10:56:27.203Z,38.32
2022-08-17T10:58:57.355Z,38.35
2022-08-17T11:02:03.325Z,38.83
2022-08-17T11:04:47.899Z,38.88
2022-08-17T11:07:21.605Z,38.02
2022-08-17T11:10:09.746Z,38.75
2022-08-17T11:12:44.596Z,38.62
2022-08-17T11:15:25.442Z,39.09
2022-08-17T11:18:34.783Z,39.11
2022-08-17T11:21:39.879Z,38.94
2022-08-17T11:24:17.504Z,39.24
2022-08-17T11:27:02.437Z,39.50
2022-08-17T11:29:34.912Z,39.05
2022-08-17T11:32:11.119Z,38.62
2022-08-17T11:34:40.320Z,39.58
2022-08-17T11:37:32.588Z,38.99
2022-08-17T11:40:26.168Z,38.68
2022-08-17T11:43:15.618Z,39.10
2022-08-17T11:45:57.456Z,40.36
2022-08-17T11:48:53.889Z,40.25
2022-08-17T11:51:36.087Z,39.89
2022-08-17T11:57:00.157Z,40.56
2022-08-17T11:59:59.205Z,40.44
2022-08-17T12:02:48.521Z,41.65
2022-08-17T12:05:38.496Z,40.45
2022-08-17T12:08:14.818Z,40.42
2022-08-17T12:10:53.655Z,41.79
2022-08-17T12:13:23.821Z,41.09
2022-08-17T12:16:00.596Z,40.86
2022-08-17T12:18:31.841Z,41.37
2022-08-17T12:21:22.322Z,41.91
2022-08-17T12:23:57.858Z,42.55
2022-08-17T12:26:30.294Z,41.99
2022-08-17T12:29:01.551Z,42.03
2022-08-17T12:31:37.389Z,41.60
2022-08-17T12:34:06.358Z,40.83
2022-08-17T12:36:35.177Z,41.66
2022-08-17T12:39:14.042Z,41.28
2022-08-17T12:41:47.067Z,42.22
2022-08-17T12:44:17.342Z,41.76
2022-08-17T12:46:56.500Z,41.56
2022-08-17T12:49:29.186Z,42.08
2022-08-17T12:52:13.836Z,42.31
2022-08-17T12:54:52.850Z,43.35
2022-08-17T12:57:23.571Z,43.21
2022-08-17T12:59:55.837Z,42.79
2022-08-17T13:02:40.062Z,42.29
2022-08-17T13:05:18.037Z,41.98
2022-08-17T13:07:47.649Z,42.39
2022-08-17T13:10:25.528Z,43.47
2022-08-17T13:12:58.181Z,42.88
2022-08-17T13:15:38.293Z,42.68
2022-08-17T13:18:40.068Z,43.00
2022-08-17T13:21:13.923Z,43.50
2022-08-17T13:23:53.490Z,42.88
2022-08-17T13:26:28.219Z,43.01
2022-08-17T13:28:56.611Z,43.39
2022-08-17T13:31:42.847Z,43.19
2022-08-17T13:34:48.978Z,43.88
2022-08-17T13:37:30.444Z,43.60
2022-08-17T13:40:21.089Z,44.45
2022-08-17T13:42:53.961Z,43.43
2022-08-17T13:45:39.180Z,42.04
2022-08-17T13:48:14.121Z,42.23
2022-08-17T13:50:46.424Z,42.77
2022-08-17T13:53:20.927Z,43.48
2022-08-17T13:55:51.737Z,42.97
2022-08-17T13:58:27.236Z,43.33
2022-08-17T14:00:56.435Z,43.28
2022-08-17T14:03:26.084Z,43.08
2022-08-17T14:05:56.261Z,43.58
2022-08-17T14:08:26.493Z,44.33
2022-08-17T14:10:59.142Z,44.51
2022-08-17T14:13:28.803Z,44.08
2022-08-17T14:15:57.123Z,44.14
2022-08-17T14:18:31.247Z,43.07
2022-08-17T14:21:16.035Z,43.15
2022-08-17T14:23:54.238Z,44.01
2022-08-17T14:26:23.243Z,44.47
2022-08-17T14:28:54.465Z,43.81
2022-08-17T14:31:25.122Z,43.40
2022-08-17T14:33:53.333Z,42.18
2022-08-17T14:36:23.201Z,42.14
2022-08-17T14:38:51.514Z,43.22
2022-08-17T14:41:22.167Z,43.59
2022-08-17T14:43:53.000Z,42.65
2022-08-17T14:46:21.437Z,43.09
2022-08-17T14:48:57.143Z,43.22
2022-08-17T14:51:30.035Z,43.40
2022-08-17T14:53:58.494Z,43.20
2022-08-17T14:56:27.252Z,43.37
2022-08-17T14:59:00.173Z,43.89
2022-08-17T15:01:28.619Z,43.80
2022-08-17T15:04:00.403Z,43.44
2022-08-17T15:06:30.153Z,42.60
2022-08-17T15:08:58.743Z,43.30
2022-08-17T15:11:27.133Z,43.37
2022-08-17T15:13:55.468Z,43.00
2022-08-17T15:16:24.355Z,42.78
2022-08-17T15:18:52.813Z,42.23
2022-08-17T15:21:21.263Z,42.58
2022-08-17T15:23:51.201Z,42.09
2022-08-17T15:26:24.110Z,42.77
2022-08-17T15:28:57.906Z,42.65
2022-08-17T15:31:32.367Z,41.91
2022-08-17T15:34:00.998Z,42.68
2022-08-17T15:36:29.452Z,42.48
2022-08-17T15:39:00.228Z,41.48
2022-08-17T15:41:29.462Z,41.95
2022-08-17T15:43:57.831Z,41.78
2022-08-17T15:46:26.883Z,41.31
2022-08-17T15:48:59.964Z,41.97
2022-08-17T15:51:30.781Z,41.62
2022-08-17T15:54:04.507Z,40.92
2022-08-17T15:56:47.475Z,39.99
2022-08-17T15:59:15.852Z,39.60
2022-08-17T16:03:15.017Z,39.56
2022-08-17T16:04:33.042Z,40.03
2022-08-17T16:07:01.748Z,39.92
2022-08-17T16:09:31.475Z,40.73
2022-08-17T16:12:00.293Z,40.91
2022-08-17T16:14:32.453Z,40.78
2022-08-17T16:17:02.607Z,40.65
2022-08-17T16:19:30.878Z,39.91
2022-08-17T16:21:59.614Z,40.07
2022-08-17T16:24:27.881Z,40.28
2022-08-17T16:26:57.695Z,39.55
2022-08-17T16:29:26.129Z,40.09
2022-08-17T16:31:54.571Z,39.51
2022-08-17T16:34:22.951Z,40.11
2022-08-17T16:36:56.115Z,40.18
2022-08-17T16:39:26.863Z,40.13
2022-08-17T16:41:56.098Z,39.73
2022-08-17T16:44:29.076Z,39.63
2022-08-17T16:46:57.499Z,39.47
2022-08-17T16:49:36.941Z,39.43
2022-08-17T16:52:09.879Z,39.37
2022-08-17T16:54:40.906Z,39.41
2022-08-17T16:57:10.101Z,39.14
2022-08-17T16:59:43.563Z,39.08
2022-08-17T17:02:18.780Z,39.27
2022-08-17T17:04:51.904Z,39.29
2022-08-17T17:07:37.323Z,38.99
2022-08-17T17:10:10.076Z,38.65
2022-08-17T17:13:02.781Z,38.43
2022-08-17T17:15:43.057Z,38.69
2022-08-17T17:18:14.854Z,38.81
2022-08-17T17:20:47.838Z,38.50
2022-08-17T17:23:26.197Z,38.22
2022-08-17T17:26:02.936Z,38.21
2022-08-17T17:28:38.366Z,37.97
2022-08-17T17:31:12.426Z,38.04
2022-08-17T17:33:44.465Z,37.72
2022-08-17T17:36:23.614Z,37.59
2022-08-17T17:38:55.151Z,37.57
2022-08-17T17:41:33.969Z,37.78
2022-08-17T17:44:05.565Z,37.53
2022-08-17T17:46:39.018Z,37.23
2022-08-17T17:49:09.486Z,36.84
2022-08-17T17:52:06.361Z,36.59
2022-08-17T17:55:01.369Z,36.64
2022-08-17T17:57:36.392Z,36.52
2022-08-17T18:00:09.235Z,36.44
2022-08-17T18:03:02.625Z,36.04
2022-08-17T18:05:50.007Z,35.76
2022-08-17T18:08:41.457Z,35.37
2022-08-17T18:11:24.688Z,35.18
2022-08-17T18:14:04.073Z,35.21
2022-08-17T18:16:33.955Z,35.15
2022-08-17T18:19:03.694Z,35.01
2022-08-17T18:21:38.783Z,34.89
2022-08-17T18:24:11.112Z,34.85
2022-08-17T18:26:58.152Z,34.66
2022-08-17T18:29:34.368Z,34.37
2022-08-17T18:32:31.339Z,34.16
2022-08-17T18:35:05.411Z,34.14
2022-08-17T18:37:44.975Z,33.91
2022-08-17T18:40:30.102Z,33.60
2022-08-17T18:43:03.987Z,33.40
2022-08-17T18:45:35.499Z,33.44
2022-08-17T18:48:04.172Z,33.12
2022-08-17T18:50:41.286Z,33.18
2022-08-17T18:53:34.068Z,33.13
2022-08-17T18:56:23.258Z,32.72
2022-08-17T18:59:02.667Z,32.40
2022-08-17T19:01:47.193Z,32.69
2022-08-17T19:04:34.132Z,32.69
2022-08-17T19:07:10.277Z,32.68
2022-08-17T19:09:44.348Z,32.50
2022-08-17T19:12:27.117Z,32.46
2022-08-17T19:14:57.599Z,32.46
2022-08-17T19:17:32.954Z,32.15
2022-08-17T19:20:05.485Z,32.15
2022-08-17T19:22:55.921Z,31.71
2022-08-17T19:25:29.021Z,31.59
2022-08-17T19:28:04.945Z,31.89
2022-08-17T19:30:51.896Z,31.66
2022-08-17T19:33:21.005Z,31.47
2022-08-17T19:35:53.876Z,31.19
2022-08-17T19:38:31.502Z,31.15
2022-08-17T19:41:04.651Z,31.07
2022-08-17T19:43:49.105Z,31.40
2022-08-17T19:46:30.693Z,31.42
2022-08-17T19:49:10.129Z,31.34
2022-08-17T19:51:45.057Z,30.92
2022-08-17T19:54:20.842Z,30.91
2022-08-17T19:56:58.128Z,31.19
2022-08-17T19:59:49.579Z,31.27
2022-08-17T20:02:27.438Z,30.91
2022-08-17T20:05:01.474Z,30.64
2022-08-17T20:07:32.741Z,31.01
2022-08-17T20:10:05.484Z,30.84
2022-08-17T20:12:36.753Z,30.95
2022-08-17T20:15:10.633Z,31.33
2022-08-17T20:17:42.077Z,31.13
2022-08-17T20:20:21.779Z,30.78
2022-08-17T20:22:55.714Z,30.60
2022-08-17T20:25:32.768Z,30.55
2022-08-17T20:28:06.164Z,30.24
2022-08-17T20:30:38.589Z,30.35
2022-08-17T20:33:08.311Z,30.33
2022-08-17T20:35:41.637Z,30.17
2022-08-17T20:38:12.856Z,30.16
2022-08-17T20:41:11.409Z,30.23
2022-08-17T20:43:51.233Z,29.74
2022-08-17T20:46:26.898Z,29.68
2022-08-17T20:48:58.612Z,30.28
2022-08-17T20:51:30.546Z,30.39
2022-08-17T20:54:27.513Z,30.01
2022-08-17T20:56:59.595Z,29.62
2022-08-17T21:00:01.341Z,29.69
2022-08-17T21:02:30.296Z,29.91
2022-08-17T21:05:30.043Z,29.48
2022-08-17T21:08:00.881Z,29.54
2022-08-17T21:10:37.023Z,29.66
2022-08-17T21:13:53.352Z,29.58
2022-08-17T21:16:32.809Z,29.36
2022-08-17T21:19:16.978Z,29.50
2022-08-17T21:21:53.200Z,29.60
2022-08-17T21:24:35.060Z,29.45
2022-08-17T21:27:09.364Z,29.37
2022-08-17T21:29:53.587Z,29.34
2022-08-17T21:32:30.334Z,28.98
2022-08-17T21:35:28.697Z,28.24
2022-08-17T21:38:00.835Z,29.06
2022-08-17T21:40:31.407Z,29.15
2022-08-17T21:43:03.206Z,29.33
2022-08-17T21:45:35.654Z,28.42
2022-08-17T21:48:15.430Z,28.78
2022-08-17T21:50:46.471Z,28.72
2022-08-17T21:53:22.903Z,28.70
2022-08-17T21:55:52.320Z,28.50
2022-08-17T21:58:30.103Z,28.43
2022-08-17T22:01:20.391Z,28.73
2022-08-17T22:03:56.605Z,28.95
2022-08-17T22:06:27.820Z,28.21
2022-08-17T22:09:02.237Z,28.37
2022-08-17T22:11:30.676Z,28.22
2022-08-17T22:14:05.224Z,28.52
2022-08-17T22:16:35.895Z,28.28
2022-08-17T22:19:06.643Z,28.34
2022-08-17T22:21:35.019Z,28.36
2022-08-17T22:24:06.099Z,28.26
2022-08-17T22:27:00.305Z,28.28
2022-08-17T22:29:47.129Z,28.11
2022-08-17T22:32:37.423Z,27.94
2022-08-17T22:35:40.690Z,27.82
2022-08-17T22:38:33.910Z,27.95
2022-08-17T22:41:38.233Z,27.64
2022-08-17T22:44:17.275Z,27.24
2022-08-17T22:46:58.849Z,27.76
2022-08-17T22:49:31.111Z,27.69
2022-08-17T22:52:22.925Z,27.65
2022-08-17T22:55:31.368Z,27.42
2022-08-17T22:58:17.710Z,27.54
2022-08-17T23:00:47.845Z,27.58
2022-08-17T23:03:19.699Z,27.71
2022-08-17T23:06:03.469Z,27.58
2022-08-17T23:08:34.048Z,27.68
2022-08-17T23:11:02.522Z,28.04
2022-08-17T23:13:33.514Z,28.07
2022-08-17T23:16:02.470Z,27.32
2022-08-17T23:18:30.678Z,27.82
2022-08-17T23:21:01.029Z,27.80
2022-08-17T23:23:31.445Z,27.99
2022-08-17T23:25:59.705Z,27.98
2022-08-17T23:28:28.595Z,27.77
2022-08-17T23:30:56.837Z,27.79
2022-08-17T23:33:30.501Z,27.59
2022-08-17T23:36:00.269Z,27.83
2022-08-17T23:38:29.272Z,27.45
2022-08-17T23:41:00.996Z,27.25
2022-08-17T23:46:17.428Z,27.70
2022-08-17T23:48:45.909Z,27.74
2022-08-17T23:51:19.519Z,27.91
2022-08-17T23:53:51.458Z,28.00
2022-08-17T23:56:24.302Z,27.51
2022-08-17T23:58:53.134Z,27.72
